Time,TemperatureF,DewpointF,PressureIn,WindDirection,WindDirectionDegrees,WindSpeedMPH,WindSpeedGustMPH,Humidity,HourlyPrecipIn,Conditions,Clouds,dailyrainin,SoftwareType,DateUTC
2013-08-21 00:00:00,70.1,66.4,30.13,SSE,167,0.0,0.0,88,0.00,,,0.00,Wunderground v.1.15,2013-08-21 04:00:00,
2013-08-21 00:10:00,70.1,66.0,30.13,SSE,167,0.0,0.0,87,0.00,,,0.00,Wunderground v.1.15,2013-08-21 04:10:00,
2013-08-21 00:20:00,70.0,66.0,30.13,SSE,167,0.0,0.0,87,0.00,,,0.00,Wunderground v.1.15,2013-08-21 04:20:00,
2013-08-21 00:30:00,69.9,65.9,30.13,SSE,167,0.0,0.0,87,0.00,,,0.00,Wunderground v.1.15,2013-08-21 04:30:00,
2013-08-21 00:40:00,69.9,65.9,30.13,SSE,167,0.0,0.0,87,0.00,,,0.00,Wunderground v.1.15,2013-08-21 04:40:00,
2013-08-21 00:50:00,70.0,65.6,30.13,SSE,167,0.0,0.0,86,0.00,,,0.00,Wunderground v.1.15,2013-08-21 04:50:00,
2013-08-21 01:00:00,70.2,65.8,30.13,SSE,167,0.0,0.0,86,0.00,,,0.00,Wunderground v.1.15,2013-08-21 05:00:00,
2013-08-21 01:10:00,70.5,65.8,30.13,SSE,167,0.0,1.0,85,0.00,,,0.00,Wunderground v.1.15,2013-08-21 05:10:00,
2013-08-21 01:20:00,70.6,65.5,30.13,SSE,167,1.0,1.0,84,0.00,,,0.00,Wunderground v.1.15,2013-08-21 05:20:00,
2013-08-21 01:30:00,70.7,66.0,30.13,SSE,167,0.0,0.0,85,0.00,,,0.00,Wunderground v.1.15,2013-08-21 05:30:00,
2013-08-21 01:40:00,70.6,65.9,30.13,SSE,167,0.0,0.0,85,0.00,,,0.00,Wunderground v.1.15,2013-08-21 05:40:00,
2013-08-21 01:50:00,70.9,66.2,30.12,SSE,167,0.0,0.0,85,0.00,,,0.00,Wunderground v.1.15,2013-08-21 05:50:00,
2013-08-21 02:00:00,71.0,66.3,30.12,SSE,167,0.0,0.0,85,0.00,,,0.00,Wunderground v.1.15,2013-08-21 06:00:00,
2013-08-21 02:10:00,70.6,65.9,30.12,SSE,167,0.0,0.0,85,0.00,,,0.00,Wunderground v.1.15,2013-08-21 06:10:00,
2013-08-21 02:20:00,70.3,65.9,30.13,SSE,167,0.0,0.0,86,0.00,,,0.00,Wunderground v.1.15,2013-08-21 06:20:00,
2013-08-21 02:30:00,69.8,65.8,30.12,SSE,167,0.0,0.0,87,0.00,,,0.00,Wunderground v.1.15,2013-08-21 06:30:00,
2013-08-21 02:40:00,69.4,65.4,30.13,SSE,167,0.0,0.0,87,0.00,,,0.00,Wunderground v.1.15,2013-08-21 06:40:00,
2013-08-21 02:50:00,69.2,65.2,30.12,SSE,167,0.0,0.0,87,0.00,,,0.00,Wunderground v.1.15,2013-08-21 06:50:00,
2013-08-21 03:00:00,68.7,65.0,30.12,SSE,167,0.0,0.0,88,0.00,,,0.00,Wunderground v.1.15,2013-08-21 07:00:00,
2013-08-21 03:10:00,68.3,64.9,30.12,SSE,167,0.0,0.0,89,0.00,,,0.00,Wunderground v.1.15,2013-08-21 07:10:00,
2013-08-21 03:20:00,68.1,64.7,30.12,SSE,167,0.0,0.0,89,0.00,,,0.00,Wunderground v.1.15,2013-08-21 07:20:00,
2013-08-21 03:30:00,67.9,64.5,30.12,SSE,167,0.0,0.0,89,0.00,,,0.00,Wunderground v.1.15,2013-08-21 07:30:00,
2013-08-21 03:40:00,67.6,64.6,30.12,SSE,167,0.0,0.0,90,0.00,,,0.00,Wunderground v.1.15,2013-08-21 07:40:00,
2013-08-21 03:50:00,67.3,64.3,30.12,SSE,167,0.0,0.0,90,0.00,,,0.00,Wunderground v.1.15,2013-08-21 07:50:00,
2013-08-21 04:00:00,66.9,64.2,30.11,SSE,167,0.0,0.0,91,0.00,,,0.00,Wunderground v.1.15,2013-08-21 08:00:00,
2013-08-21 04:10:00,66.6,63.9,30.11,SSE,167,0.0,0.0,91,0.00,,,0.00,Wunderground v.1.15,2013-08-21 08:10:00,
2013-08-21 04:20:00,66.4,64.0,30.11,SSE,167,0.0,0.0,92,0.00,,,0.00,Wunderground v.1.15,2013-08-21 08:20:00,
2013-08-21 04:30:00,66.3,63.9,30.11,SSE,167,0.0,0.0,92,0.00,,,0.00,Wunderground v.1.15,2013-08-21 08:30:00,
2013-08-21 04:40:00,66.1,63.7,30.11,SSE,167,0.0,0.0,92,0.00,,,0.00,Wunderground v.1.15,2013-08-21 08:40:00,
2013-08-21 04:50:00,66.1,64.0,30.11,SSE,167,0.0,0.0,93,0.00,,,0.00,Wunderground v.1.15,2013-08-21 08:50:00,
2013-08-21 05:00:00,65.9,63.8,30.11,SSE,167,0.0,0.0,93,0.00,,,0.00,Wunderground v.1.15,2013-08-21 09:00:00,
2013-08-21 05:10:00,65.6,63.5,30.11,SSE,167,0.0,0.0,93,0.00,,,0.00,Wunderground v.1.15,2013-08-21 09:10:00,
2013-08-21 05:20:00,65.2,62.8,30.11,SSE,167,0.0,0.0,92,0.00,,,0.00,Wunderground v.1.15,2013-08-21 09:20:00,
2013-08-21 05:30:00,64.9,62.8,30.11,SSE,167,0.0,0.0,93,0.00,,,0.00,Wunderground v.1.15,2013-08-21 09:30:00,
2013-08-21 05:40:00,64.9,62.8,30.12,SSE,167,0.0,0.0,93,0.00,,,0.00,Wunderground v.1.15,2013-08-21 09:40:00,
2013-08-21 05:50:00,64.6,62.5,30.12,SSE,167,0.0,0.0,93,0.00,,,0.00,Wunderground v.1.15,2013-08-21 09:50:00,
2013-08-21 06:00:00,64.4,62.3,30.11,SSE,167,0.0,0.0,93,0.00,,,0.00,Wunderground v.1.15,2013-08-21 10:00:00,
2013-08-21 06:10:00,64.4,62.3,30.12,SSE,167,0.0,0.0,93,0.00,,,0.00,Wunderground v.1.15,2013-08-21 10:10:00,
2013-08-21 06:20:00,64.3,62.2,30.12,SSE,167,0.0,0.0,93,0.00,,,0.00,Wunderground v.1.15,2013-08-21 10:20:00,
2013-08-21 06:30:00,64.3,62.2,30.12,SSE,167,0.0,0.0,93,0.00,,,0.00,Wunderground v.1.15,2013-08-21 10:30:00,
2013-08-21 06:40:00,64.1,62.3,30.12,SSE,167,0.0,0.0,94,0.00,,,0.00,Wunderground v.1.15,2013-08-21 10:40:00,
2013-08-21 06:50:00,64.0,62.2,30.13,SSE,167,0.0,0.0,94,0.00,,,0.00,Wunderground v.1.15,2013-08-21 10:50:00,
2013-08-21 07:00:00,64.0,62.2,30.13,SSE,167,0.0,0.0,94,0.00,,,0.00,Wunderground v.1.15,2013-08-21 11:00:00,
2013-08-21 07:10:00,63.8,62.0,30.14,SSE,167,0.0,0.0,94,0.00,,,0.00,Wunderground v.1.15,2013-08-21 11:10:00,
2013-08-21 07:20:00,64.2,62.4,30.14,SSE,167,0.0,0.0,94,0.00,,,0.00,Wunderground v.1.15,2013-08-21 11:20:00,
2013-08-21 07:25:00,64.4,62.6,30.14,SSE,167,0.0,0.0,94,0.00,,,0.00,Wunderground v.1.15,2013-08-21 11:25:00,
2013-08-21 07:40:00,64.9,63.4,30.14,SSE,167,0.0,0.0,95,0.00,,,0.00,Wunderground v.1.15,2013-08-21 11:40:00,
2013-08-21 07:50:00,65.8,64.3,30.14,SSE,167,0.0,0.0,95,0.00,,,0.00,Wunderground v.1.15,2013-08-21 11:50:00,
2013-08-21 08:00:00,67.0,65.5,30.15,SSE,167,0.0,0.0,95,0.00,,,0.00,Wunderground v.1.15,2013-08-21 12:00:00,
2013-08-21 08:10:00,67.9,66.4,30.15,SSE,167,0.0,0.0,95,0.00,,,0.00,Wunderground v.1.15,2013-08-21 12:10:00,
2013-08-21 08:20:00,68.8,67.0,30.15,SSE,167,0.0,0.0,94,0.00,,,0.00,Wunderground v.1.15,2013-08-21 12:20:00,
2013-08-21 08:30:00,69.2,67.1,30.15,SSE,167,0.0,0.0,93,0.00,,,0.00,Wunderground v.1.15,2013-08-21 12:30:00,
2013-08-21 08:40:00,69.6,67.2,30.15,SSE,167,0.0,0.0,92,0.00,,,0.00,Wunderground v.1.15,2013-08-21 12:40:00,
2013-08-21 08:50:00,69.9,67.5,30.16,South,184,0.0,0.0,92,0.00,,,0.00,Wunderground v.1.15,2013-08-21 12:50:00,
2013-08-21 09:00:00,70.1,67.7,30.16,SW,219,0.0,0.0,92,0.00,,,0.00,Wunderground v.1.15,2013-08-21 13:00:00,
2013-08-21 09:10:00,70.4,68.0,30.16,SW,219,0.0,0.0,92,0.00,,,0.00,Wunderground v.1.15,2013-08-21 13:10:00,
2013-08-21 09:20:00,70.6,68.2,30.16,South,171,0.0,0.0,92,0.00,,,0.00,Wunderground v.1.15,2013-08-21 13:20:00,
2013-08-21 09:30:00,70.9,68.5,30.16,South,175,0.0,1.0,92,0.00,,,0.00,Wunderground v.1.15,2013-08-21 13:30:00,
2013-08-21 09:40:00,71.7,68.9,30.16,South,169,1.0,4.0,91,0.00,,,0.00,Wunderground v.1.15,2013-08-21 13:40:00,
2013-08-21 09:50:00,73.0,69.9,30.16,SSW,194,2.0,2.0,90,0.00,,,0.00,Wunderground v.1.15,2013-08-21 13:50:00,
2013-08-21 10:00:00,73.8,70.4,30.16,SE,139,3.0,4.0,89,0.00,,,0.00,Wunderground v.1.15,2013-08-21 14:00:00,
2013-08-21 10:10:00,74.6,70.5,30.16,South,169,2.0,2.0,87,0.00,,,0.00,Wunderground v.1.15,2013-08-21 14:10:00,
2013-08-21 10:15:00,75.1,70.6,30.16,SSE,163,1.0,2.0,86,0.00,,,0.00,Wunderground v.1.15,2013-08-21 14:15:00,
2013-08-21 10:30:00,76.5,71.7,30.16,SSE,155,1.0,1.0,85,0.00,,,0.00,Wunderground v.1.15,2013-08-21 14:30:00,
2013-08-21 10:40:00,76.7,71.5,30.16,SE,128,1.0,2.0,84,0.00,,,0.00,Wunderground v.1.15,2013-08-21 14:40:00,
2013-08-21 10:50:00,76.6,71.4,30.16,West,263,1.0,3.0,84,0.00,,,0.00,Wunderground v.1.15,2013-08-21 14:50:00,
2013-08-21 11:00:00,77.1,71.9,30.16,SSW,205,1.0,2.0,84,0.00,,,0.00,Wunderground v.1.15,2013-08-21 15:00:00,
2013-08-21 11:10:00,76.8,71.2,30.16,SW,234,1.0,1.0,83,0.00,,,0.00,Wunderground v.1.15,2013-08-21 15:10:00,
2013-08-21 11:20:00,77.6,73.1,30.16,SW,234,0.0,2.0,86,0.00,,,0.00,Wunderground v.1.15,2013-08-21 15:20:00,
2013-08-21 11:30:00,78.4,72.8,30.16,SW,235,1.0,1.0,83,0.00,,,0.00,Wunderground v.1.15,2013-08-21 15:30:00,
2013-08-21 11:40:00,79.4,72.7,30.15,ESE,120,1.0,1.0,80,0.00,,,0.00,Wunderground v.1.15,2013-08-21 15:40:00,
2013-08-21 11:50:00,79.6,72.5,30.15,WSW,246,1.0,1.0,79,0.00,,,0.00,Wunderground v.1.15,2013-08-21 15:50:00,
2013-08-21 12:00:00,78.9,72.6,30.15,SSW,213,0.0,0.0,81,0.00,,,0.00,Wunderground v.1.15,2013-08-21 16:00:00,
2013-08-21 12:10:00,78.2,71.9,30.15,SW,215,0.0,0.0,81,0.00,,,0.00,Wunderground v.1.15,2013-08-21 16:10:00,
2013-08-21 12:20:00,77.8,71.9,30.15,ENE,71,0.0,0.0,82,0.00,,,0.00,Wunderground v.1.15,2013-08-21 16:20:00,
2013-08-21 12:30:00,77.3,72.1,30.15,ENE,78,0.0,0.0,84,0.00,,,0.00,Wunderground v.1.15,2013-08-21 16:30:00,
2013-08-21 12:40:00,76.4,71.2,30.15,SSW,201,2.0,2.0,84,0.00,,,0.00,Wunderground v.1.15,2013-08-21 16:40:00,
2013-08-21 12:50:00,76.1,70.9,30.15,SSW,201,0.0,0.0,84,0.00,,,0.00,Wunderground v.1.15,2013-08-21 16:50:00,
2013-08-21 13:00:00,75.8,70.3,30.15,SSW,201,0.0,0.0,83,0.00,,,0.00,Wunderground v.1.15,2013-08-21 17:00:00,
2013-08-21 13:10:00,76.5,70.9,30.14,SSW,201,0.0,1.0,83,0.00,,,0.00,Wunderground v.1.15,2013-08-21 17:10:00,
2013-08-21 13:15:00,77.4,71.1,30.14,South,173,1.0,1.0,81,0.00,,,0.00,Wunderground v.1.15,2013-08-21 17:15:00,
2013-08-21 13:30:00,78.3,70.9,30.13,South,173,1.0,2.0,78,0.00,,,0.00,Wunderground v.1.15,2013-08-21 17:30:00,
2013-08-21 13:35:00,78.2,70.8,30.12,South,173,1.0,2.0,78,0.00,,,0.00,Wunderground v.1.15,2013-08-21 17:35:00,
2013-08-21 13:50:00,79.8,70.8,30.13,ESE,122,3.0,3.0,74,0.00,,,0.00,Wunderground v.1.15,2013-08-21 17:50:00,
2013-08-21 14:00:00,80.6,72.7,30.13,SE,134,2.0,4.0,77,0.00,,,0.00,Wunderground v.1.15,2013-08-21 18:00:00,
2013-08-21 14:10:00,80.8,71.7,30.12,South,169,3.0,4.0,74,0.00,,,0.00,Wunderground v.1.15,2013-08-21 18:10:00,
2013-08-21 14:20:00,81.4,71.1,30.11,SW,215,2.0,2.0,71,0.00,,,0.00,Wunderground v.1.15,2013-08-21 18:20:00,
2013-08-21 14:30:00,81.8,71.9,30.11,SW,215,1.0,1.0,72,0.00,,,0.00,Wunderground v.1.15,2013-08-21 18:30:00,
2013-08-21 14:40:00,82.4,73.3,30.11,NNE,25,1.0,3.0,74,0.00,,,0.00,Wunderground v.1.15,2013-08-21 18:40:00,
2013-08-21 14:50:00,81.3,73.0,30.11,North,355,1.0,2.0,76,0.00,,,0.00,Wunderground v.1.15,2013-08-21 18:50:00,
2013-08-21 15:00:00,79.8,72.7,30.11,NNE,19,1.0,1.0,79,0.00,,,0.00,Wunderground v.1.15,2013-08-21 19:00:00,
2013-08-21 15:10:00,79.1,72.8,30.10,NNE,19,0.0,1.0,81,0.00,,,0.00,Wunderground v.1.15,2013-08-21 19:10:00,
2013-08-21 15:20:00,80.5,71.4,30.09,East,99,2.0,2.0,74,0.00,,,0.00,Wunderground v.1.15,2013-08-21 19:20:00,
2013-08-21 15:30:00,81.3,72.2,30.08,SE,125,2.0,3.0,74,0.00,,,0.00,Wunderground v.1.15,2013-08-21 19:30:00,
2013-08-21 15:40:00,81.9,72.4,30.08,South,190,2.0,2.0,73,0.00,,,0.00,Wunderground v.1.15,2013-08-21 19:40:00,
2013-08-21 15:50:00,82.4,72.0,30.08,ESE,122,2.0,2.0,71,0.00,,,0.00,Wunderground v.1.15,2013-08-21 19:50:00,
2013-08-21 16:00:00,83.0,73.0,30.08,SE,138,1.0,1.0,72,0.00,,,0.00,Wunderground v.1.15,2013-08-21 20:00:00,
2013-08-21 16:10:00,83.2,72.8,30.08,ESE,120,2.0,2.0,71,0.00,,,0.00,Wunderground v.1.15,2013-08-21 20:10:00,
2013-08-21 16:20:00,83.6,71.9,30.07,South,171,1.0,3.0,68,0.00,,,0.00,Wunderground v.1.15,2013-08-21 20:20:00,
2013-08-21 16:30:00,83.5,71.8,30.07,South,179,3.0,4.0,68,0.00,,,0.00,Wunderground v.1.15,2013-08-21 20:30:00,
2013-08-21 16:40:00,84.1,73.7,30.07,SW,218,1.0,2.0,71,0.00,,,0.00,Wunderground v.1.15,2013-08-21 20:40:00,
2013-08-21 16:50:00,83.8,73.4,30.06,SE,143,2.0,4.0,71,0.00,,,0.00,Wunderground v.1.15,2013-08-21 20:50:00,
2013-08-21 17:00:00,84.0,72.7,30.07,SSE,166,2.0,2.0,69,0.00,,,0.00,Wunderground v.1.15,2013-08-21 21:00:00,
2013-08-21 17:10:00,84.1,73.3,30.07,SSE,150,2.0,2.0,70,0.00,,,0.00,Wunderground v.1.15,2013-08-21 21:10:00,
2013-08-21 17:20:00,84.0,72.3,30.07,SSW,192,2.0,2.0,68,0.00,,,0.00,Wunderground v.1.15,2013-08-21 21:20:00,
2013-08-21 17:30:00,84.3,71.2,30.06,SW,217,2.0,3.0,65,0.00,,,0.00,Wunderground v.1.15,2013-08-21 21:30:00,
2013-08-21 17:40:00,84.7,73.4,30.06,SSW,210,1.0,1.0,69,0.00,,,0.00,Wunderground v.1.15,2013-08-21 21:40:00,
2013-08-21 17:50:00,84.9,72.3,30.06,SSW,210,2.0,2.0,66,0.00,,,0.00,Wunderground v.1.15,2013-08-21 21:50:00,
2013-08-21 18:00:00,84.5,72.3,30.06,South,187,2.0,4.0,67,0.00,,,0.00,Wunderground v.1.15,2013-08-21 22:00:00,
2013-08-21 18:10:00,84.4,72.2,30.06,South,181,2.0,2.0,67,0.00,,,0.00,Wunderground v.1.15,2013-08-21 22:10:00,
2013-08-21 18:20:00,84.7,72.5,30.06,SW,223,1.0,1.0,67,0.00,,,0.00,Wunderground v.1.15,2013-08-21 22:20:00,
2013-08-21 18:30:00,84.1,73.3,30.06,SW,219,2.0,2.0,70,0.00,,,0.00,Wunderground v.1.15,2013-08-21 22:30:00,
2013-08-21 18:40:00,83.8,73.8,30.06,SW,219,1.0,1.0,72,0.00,,,0.00,Wunderground v.1.15,2013-08-21 22:40:00,
2013-08-21 18:50:00,83.6,73.6,30.06,West,268,0.0,0.0,72,0.00,,,0.00,Wunderground v.1.15,2013-08-21 22:50:00,
2013-08-21 19:00:00,83.3,73.7,30.05,West,267,0.0,0.0,73,0.00,,,0.00,Wunderground v.1.15,2013-08-21 23:00:00,
2013-08-21 19:10:00,83.5,72.7,30.05,South,184,1.0,1.0,70,0.00,,,0.00,Wunderground v.1.15,2013-08-21 23:10:00,
2013-08-21 19:20:00,83.1,73.5,30.06,SSW,195,1.0,1.0,73,0.00,,,0.00,Wunderground v.1.15,2013-08-21 23:20:00,
2013-08-21 19:30:00,82.5,73.0,30.06,SSE,162,2.0,2.0,73,0.00,,,0.00,Wunderground v.1.15,2013-08-21 23:30:00,
2013-08-21 19:40:00,81.5,72.0,30.06,SSW,200,3.0,6.0,73,0.00,,,0.00,Wunderground v.1.15,2013-08-21 23:40:00,
2013-08-21 19:50:00,80.3,72.4,30.05,SSW,212,2.0,2.0,77,0.00,,,0.00,Wunderground v.1.15,2013-08-21 23:50:00,
2013-08-21 20:00:00,79.7,71.5,30.06,SSE,157,0.0,2.0,76,0.00,,,0.00,Wunderground v.1.15,2013-08-22 00:00:00,
2013-08-21 20:10:00,78.7,70.1,30.07,NE,54,2.0,2.0,75,0.00,,,0.00,Wunderground v.1.15,2013-08-22 00:10:00,
2013-08-21 20:20:00,77.2,68.7,30.08,East,94,1.0,6.0,75,0.00,,,0.00,Wunderground v.1.15,2013-08-22 00:20:00,
2013-08-21 20:30:00,75.3,67.6,30.08,East,86,4.0,6.0,77,0.00,,,0.00,Wunderground v.1.15,2013-08-22 00:30:00,
2013-08-21 20:40:00,74.4,67.8,30.08,ESE,108,5.0,5.0,80,0.00,,,0.00,Wunderground v.1.15,2013-08-22 00:40:00,
2013-08-21 20:50:00,73.7,67.9,30.07,East,88,5.0,5.0,82,0.00,,,0.00,Wunderground v.1.15,2013-08-22 00:50:00,
2013-08-21 20:55:00,73.5,67.7,30.06,SE,133,3.0,5.0,82,0.00,,,0.00,Wunderground v.1.15,2013-08-22 00:55:00,
2013-08-21 21:10:00,73.6,68.1,30.05,SE,145,1.0,1.0,83,0.00,,,0.00,Wunderground v.1.15,2013-08-22 01:10:00,
2013-08-21 21:20:00,73.4,68.3,30.05,SE,140,1.0,1.0,84,0.00,,,0.00,Wunderground v.1.15,2013-08-22 01:20:00,
2013-08-21 21:30:00,72.8,68.0,30.06,SE,140,0.0,0.0,85,0.00,,,0.00,Wunderground v.1.15,2013-08-22 01:30:00,
2013-08-21 21:40:00,72.3,68.2,30.06,SE,140,0.0,0.0,87,0.00,,,0.00,Wunderground v.1.15,2013-08-22 01:40:00,
2013-08-21 21:50:00,72.0,67.9,30.06,SE,140,0.0,0.0,87,0.00,,,0.00,Wunderground v.1.15,2013-08-22 01:50:00,
2013-08-21 22:00:00,71.6,67.9,30.07,SE,140,0.0,0.0,88,0.00,,,0.00,Wunderground v.1.15,2013-08-22 02:00:00,
2013-08-21 22:10:00,71.2,67.8,30.07,SE,140,0.0,0.0,89,0.00,,,0.00,Wunderground v.1.15,2013-08-22 02:10:00,
2013-08-21 22:20:00,70.9,67.8,30.07,SE,140,0.0,0.0,90,0.00,,,0.00,Wunderground v.1.15,2013-08-22 02:20:00,
2013-08-21 22:30:00,70.7,67.6,30.08,SE,140,0.0,0.0,90,0.00,,,0.00,Wunderground v.1.15,2013-08-22 02:30:00,
2013-08-21 22:40:00,70.5,67.7,30.08,SE,140,0.0,0.0,91,0.00,,,0.00,Wunderground v.1.15,2013-08-22 02:40:00,
2013-08-21 22:50:00,70.8,68.0,30.09,SE,140,0.0,1.0,91,0.00,,,0.00,Wunderground v.1.15,2013-08-22 02:50:00,
2013-08-21 23:00:00,71.3,68.2,30.09,SE,140,0.0,0.0,90,0.00,,,0.00,Wunderground v.1.15,2013-08-22 03:00:00,
2013-08-21 23:10:00,71.3,68.2,30.09,SE,140,0.0,0.0,90,0.00,,,0.00,Wunderground v.1.15,2013-08-22 03:10:00,
2013-08-21 23:20:00,71.4,68.3,30.10,SE,140,0.0,1.0,90,0.00,,,0.00,Wunderground v.1.15,2013-08-22 03:20:00,
2013-08-21 23:30:00,71.4,68.0,30.10,SE,140,0.0,0.0,89,0.00,,,0.00,Wunderground v.1.15,2013-08-22 03:30:00,
2013-08-21 23:40:00,71.2,68.1,30.10,SE,140,0.0,0.0,90,0.00,,,0.00,Wunderground v.1.15,2013-08-22 03:40:00,
2013-08-21 23:50:00,70.8,67.7,30.11,SE,140,0.0,0.0,90,0.00,,,0.00,Wunderground v.1.15,2013-08-22 03:50:00,